Time,TemperatureF,DewpointF,PressureIn,WindDirection,WindDirectionDegrees,WindSpeedMPH,WindSpeedGustMPH,Humidity,HourlyPrecipIn,Conditions,Clouds,dailyrainin,SoftwareType,DateUTC
2013-02-17 00:02:00,54.0,36.0,30.04,NW,315,10.0,12.0,50,0.00,,,0.00,,2013-02-17 05:02:00,
2013-02-17 00:12:00,53.0,35.0,30.04,NNW,336,9.0,13.0,50,0.00,,,0.00,,2013-02-17 05:12:00,
2013-02-17 00:22:00,53.0,35.0,30.04,NNW,336,9.0,13.0,50,0.00,,,0.00,,2013-02-17 05:22:00,
2013-02-17 00:33:00,53.0,34.0,30.05,NW,320,8.0,10.0,49,0.00,,,0.00,,2013-02-17 05:33:00,
2013-02-17 00:42:00,53.0,34.0,30.05,NW,320,8.0,10.0,49,0.00,,,0.00,,2013-02-17 05:42:00,
2013-02-17 00:52:00,53.0,36.0,30.06,NW,323,6.0,11.0,53,0.00,,,0.00,,2013-02-17 05:52:00,
2013-02-17 01:02:00,53.0,36.0,30.06,NW,307,5.0,14.0,53,0.00,,,0.00,,2013-02-17 06:02:00,
2013-02-17 01:11:00,53.0,36.0,30.06,NW,307,5.0,14.0,53,0.00,,,0.00,,2013-02-17 06:11:00,
2013-02-17 01:21:00,52.0,36.0,30.07,NW,309,7.0,11.0,55,0.00,,,0.00,,2013-02-17 06:21:00,
2013-02-17 01:32:00,51.0,34.0,30.08,NNW,333,6.0,12.0,53,0.00,,,0.00,,2013-02-17 06:32:00,
2013-02-17 01:42:00,51.0,34.0,30.08,NNW,333,6.0,12.0,53,0.00,,,0.00,,2013-02-17 06:42:00,
2013-02-17 01:52:00,50.0,33.0,30.08,NNE,24,3.0,8.0,52,0.00,,,0.00,,2013-02-17 06:52:00,
2013-02-17 02:01:00,49.0,32.0,30.09,North,9,4.0,8.0,51,0.00,,,0.00,,2013-02-17 07:01:00,
2013-02-17 02:11:00,49.0,32.0,30.09,North,9,4.0,8.0,51,0.00,,,0.00,,2013-02-17 07:11:00,
2013-02-17 02:21:00,49.0,32.0,30.09,NNE,29,3.0,6.0,51,0.00,,,0.00,,2013-02-17 07:21:00,
2013-02-17 02:32:00,48.0,30.0,30.09,NE,45,2.0,4.0,49,0.00,,,0.00,,2013-02-17 07:32:00,
2013-02-17 02:42:00,48.0,30.0,30.09,NE,45,2.0,4.0,49,0.00,,,0.00,,2013-02-17 07:42:00,
2013-02-17 02:52:00,47.0,27.0,30.09,NNE,24,7.0,9.0,46,0.00,,,0.00,,2013-02-17 07:52:00,
2013-02-17 03:01:00,46.0,26.0,30.10,North,5,2.0,9.0,45,0.00,,,0.00,,2013-02-17 08:01:00,
2013-02-17 03:11:00,46.0,26.0,30.10,North,5,2.0,9.0,45,0.00,,,0.00,,2013-02-17 08:11:00,
2013-02-17 03:21:00,45.0,24.0,30.10,NE,52,4.0,7.0,43,0.00,,,0.00,,2013-02-17 08:21:00,
2013-02-17 03:32:00,45.0,24.0,30.10,North,11,3.0,11.0,43,0.00,,,0.00,,2013-02-17 08:32:00,
2013-02-17 03:42:00,45.0,24.0,30.10,North,11,3.0,11.0,43,0.00,,,0.00,,2013-02-17 08:42:00,
2013-02-17 03:52:00,45.0,24.0,30.10,North,11,3.0,11.0,43,0.00,,,0.00,,2013-02-17 08:52:00,
2013-02-17 04:02:00,44.0,21.0,30.11,NE,55,5.0,8.0,40,0.00,,,0.00,,2013-02-17 09:02:00,
2013-02-17 04:21:00,44.0,22.0,30.11,NNE,26,2.0,5.0,41,0.00,,,0.00,,2013-02-17 09:21:00,
2013-02-17 04:32:00,43.0,21.0,30.11,NNE,12,5.0,7.0,41,0.00,,,0.00,,2013-02-17 09:32:00,
2013-02-17 04:42:00,43.0,21.0,30.11,NNE,12,5.0,7.0,41,0.00,,,0.00,,2013-02-17 09:42:00,
2013-02-17 04:51:00,43.0,21.0,30.11,NNE,26,4.0,6.0,41,0.00,,,0.00,,2013-02-17 09:51:00,
2013-02-17 05:01:00,42.0,21.0,30.12,NE,39,4.0,8.0,42,0.00,,,0.00,,2013-02-17 10:01:00,
2013-02-17 05:11:00,42.0,21.0,30.12,NE,39,4.0,8.0,42,0.00,,,0.00,,2013-02-17 10:11:00,
2013-02-17 05:21:00,42.0,22.0,30.12,North,9,1.0,3.0,44,0.00,,,0.00,,2013-02-17 10:21:00,
2013-02-17 05:32:00,41.0,21.0,30.14,NE,36,0.0,1.0,45,0.00,,,0.00,,2013-02-17 10:32:00,
2013-02-17 05:42:00,41.0,21.0,30.14,NE,36,0.0,1.0,45,0.00,,,0.00,,2013-02-17 10:42:00,
2013-02-17 05:52:00,41.0,21.0,30.14,NNE,25,0.0,0.0,45,0.00,,,0.00,,2013-02-17 10:52:00,
2013-02-17 06:01:00,40.0,21.0,30.15,NE,44,1.0,4.0,46,0.00,,,0.00,,2013-02-17 11:01:00,
2013-02-17 06:11:00,40.0,21.0,30.15,NE,44,1.0,4.0,46,0.00,,,0.00,,2013-02-17 11:11:00,
2013-02-17 06:22:00,40.0,21.0,30.16,North,9,1.0,4.0,47,0.00,,,0.00,,2013-02-17 11:22:00,
2013-02-17 06:32:00,39.0,21.0,30.16,NE,36,2.0,4.0,48,0.00,,,0.00,,2013-02-17 11:32:00,
2013-02-17 06:42:00,39.0,21.0,30.16,NE,36,2.0,4.0,48,0.00,,,0.00,,2013-02-17 11:42:00,
2013-02-17 06:53:00,39.0,21.0,30.16,NNE,12,4.0,6.0,49,0.00,,,0.00,,2013-02-17 11:53:00,
2013-02-17 07:03:00,39.0,21.0,30.17,NNE,18,1.0,5.0,49,0.00,,,0.00,,2013-02-17 12:03:00,
2013-02-17 07:11:00,39.0,21.0,30.17,NNE,18,1.0,5.0,49,0.00,,,0.00,,2013-02-17 12:11:00,
2013-02-17 07:22:00,39.0,22.0,30.18,NNE,26,1.0,3.0,50,0.00,,,0.00,,2013-02-17 12:22:00,
2013-02-17 07:32:00,38.0,21.0,30.19,North,350,3.0,6.0,50,0.00,,,0.00,,2013-02-17 12:32:00,
2013-02-17 07:42:00,38.0,21.0,30.19,North,350,3.0,6.0,50,0.00,,,0.00,,2013-02-17 12:42:00,
2013-02-17 07:52:00,38.0,22.0,30.19,NE,44,1.0,4.0,51,0.00,,,0.00,,2013-02-17 12:52:00,
2013-02-17 08:02:00,38.0,22.0,30.19,NNE,30,2.0,6.0,52,0.00,,,0.00,,2013-02-17 13:02:00,
2013-02-17 08:12:00,38.0,22.0,30.19,NNE,30,2.0,6.0,52,0.00,,,0.00,,2013-02-17 13:12:00,
2013-02-17 08:22:00,40.0,23.0,30.20,NE,38,5.0,10.0,50,0.00,,,0.00,,2013-02-17 13:22:00,
2013-02-17 08:32:00,42.0,22.0,30.21,NNE,24,6.0,8.0,44,0.00,,,0.00,,2013-02-17 13:32:00,
2013-02-17 08:42:00,42.0,22.0,30.21,NNE,24,6.0,8.0,44,0.00,,,0.00,,2013-02-17 13:42:00,
2013-02-17 08:52:00,45.0,22.0,30.21,NNE,14,3.0,7.0,39,0.00,,,0.00,,2013-02-17 13:52:00,
2013-02-17 09:01:00,45.0,22.0,30.21,NNE,14,3.0,7.0,39,0.00,,,0.00,,2013-02-17 14:01:00,
2013-02-17 09:11:00,45.0,22.0,30.21,NNE,14,3.0,7.0,39,0.00,,,0.00,,2013-02-17 14:11:00,
2013-02-17 09:22:00,47.0,18.0,30.22,NNW,345,5.0,9.0,31,0.00,,,0.00,,2013-02-17 14:22:00,
2013-02-17 09:32:00,48.0,18.0,30.23,NNE,27,10.0,15.0,30,0.00,,,0.00,,2013-02-17 14:32:00,
2013-02-17 09:42:00,48.0,18.0,30.23,NNE,27,10.0,15.0,30,0.00,,,0.00,,2013-02-17 14:42:00,
2013-02-17 09:53:00,48.0,19.0,30.23,NE,53,5.0,9.0,31,0.00,,,0.00,,2013-02-17 14:53:00,
2013-02-17 10:02:00,50.0,20.0,30.24,NNE,32,6.0,10.0,30,0.00,,,0.00,,2013-02-17 15:02:00,
2013-02-17 10:11:00,50.0,20.0,30.24,NNE,32,6.0,10.0,30,0.00,,,0.00,,2013-02-17 15:11:00,
2013-02-17 10:21:00,50.0,20.0,30.24,NE,45,4.0,6.0,30,0.00,,,0.00,,2013-02-17 15:21:00,
2013-02-17 10:32:00,51.0,19.0,30.24,NNW,329,10.0,15.0,28,0.00,,,0.00,,2013-02-17 15:32:00,
2013-02-17 10:42:00,51.0,19.0,30.24,NNW,329,10.0,15.0,28,0.00,,,0.00,,2013-02-17 15:42:00,
2013-02-17 10:52:00,52.0,24.0,30.24,North,355,2.0,5.0,33,0.00,,,0.00,,2013-02-17 15:52:00,
2013-02-17 11:01:00,52.0,25.0,30.25,NNE,33,3.0,9.0,35,0.00,,,0.00,,2013-02-17 16:01:00,
2013-02-17 11:12:00,52.0,25.0,30.25,NNE,33,3.0,9.0,35,0.00,,,0.00,,2013-02-17 16:12:00,
2013-02-17 11:22:00,54.0,24.0,30.25,NNE,15,5.0,7.0,31,0.00,,,0.00,,2013-02-17 16:22:00,
2013-02-17 11:32:00,54.0,26.0,30.25,NNW,340,3.0,5.0,33,0.00,,,0.00,,2013-02-17 16:32:00,
2013-02-17 11:42:00,54.0,26.0,30.25,NNW,340,3.0,5.0,33,0.00,,,0.00,,2013-02-17 16:42:00,
2013-02-17 11:52:00,55.0,25.0,30.25,NE,43,7.0,10.0,31,0.00,,,0.00,,2013-02-17 16:52:00,
2013-02-17 12:02:00,53.0,26.0,30.25,North,355,2.0,4.0,35,0.00,,,0.00,,2013-02-17 17:02:00,
2013-02-17 12:11:00,53.0,26.0,30.25,North,355,2.0,4.0,35,0.00,,,0.00,,2013-02-17 17:11:00,
2013-02-17 12:21:00,55.0,24.0,30.25,NNW,331,0.0,3.0,30,0.00,,,0.00,,2013-02-17 17:21:00,
2013-02-17 12:32:00,55.0,25.0,30.25,WNW,296,8.0,13.0,31,0.00,,,0.00,,2013-02-17 17:32:00,
2013-02-17 12:42:00,55.0,25.0,30.25,WNW,296,8.0,13.0,31,0.00,,,0.00,,2013-02-17 17:42:00,
2013-02-17 12:52:00,55.0,23.0,30.24,NW,321,7.0,9.0,28,0.00,,,0.00,,2013-02-17 17:52:00,
2013-02-17 13:02:00,57.0,22.0,30.24,NNW,327,9.0,15.0,26,0.00,,,0.00,,2013-02-17 18:02:00,
2013-02-17 13:11:00,57.0,22.0,30.24,NNW,327,9.0,15.0,26,0.00,,,0.00,,2013-02-17 18:11:00,
2013-02-17 13:22:00,57.0,24.0,30.23,NW,313,2.0,6.0,28,0.00,,,0.00,,2013-02-17 18:22:00,
2013-02-17 13:33:00,56.0,23.0,30.23,NNE,27,5.0,10.0,27,0.00,,,0.00,,2013-02-17 18:33:00,
2013-02-17 13:42:00,56.0,23.0,30.23,NNE,27,5.0,10.0,27,0.00,,,0.00,,2013-02-17 18:42:00,
2013-02-17 13:52:00,58.0,26.0,30.22,North,360,5.0,9.0,29,0.00,,,0.00,,2013-02-17 18:52:00,
2013-02-17 14:01:00,57.0,23.0,30.21,NE,50,2.0,6.0,27,0.00,,,0.00,,2013-02-17 19:01:00,
2013-02-17 14:11:00,57.0,23.0,30.21,NE,50,2.0,6.0,27,0.00,,,0.00,,2013-02-17 19:11:00,
2013-02-17 14:22:00,58.0,25.0,30.20,NNW,346,2.0,8.0,28,0.00,,,0.00,,2013-02-17 19:22:00,
2013-02-17 14:32:00,57.0,23.0,30.20,NW,324,6.0,11.0,27,0.00,,,0.00,,2013-02-17 19:32:00,
2013-02-17 14:42:00,57.0,23.0,30.20,NW,324,6.0,11.0,27,0.00,,,0.00,,2013-02-17 19:42:00,
2013-02-17 14:52:00,58.0,24.0,30.20,North,360,3.0,9.0,27,0.00,,,0.00,,2013-02-17 19:52:00,
2013-02-17 15:02:00,58.0,24.0,30.19,North,355,7.0,13.0,27,0.00,,,0.00,,2013-02-17 20:02:00,
2013-02-17 15:11:00,58.0,24.0,30.19,North,355,7.0,13.0,27,0.00,,,0.00,,2013-02-17 20:11:00,
2013-02-17 15:22:00,58.0,25.0,30.19,NNW,342,3.0,8.0,28,0.00,,,0.00,,2013-02-17 20:22:00,
2013-02-17 15:32:00,58.0,24.0,30.19,WNW,303,7.0,11.0,27,0.00,,,0.00,,2013-02-17 20:32:00,
2013-02-17 15:42:00,58.0,24.0,30.19,WNW,303,7.0,11.0,27,0.00,,,0.00,,2013-02-17 20:42:00,
2013-02-17 15:52:00,57.0,23.0,30.19,NW,311,3.0,7.0,27,0.00,,,0.00,,2013-02-17 20:52:00,
2013-02-17 16:02:00,57.0,22.0,30.19,NNW,327,2.0,6.0,26,0.00,,,0.00,,2013-02-17 21:02:00,
2013-02-17 16:11:00,57.0,22.0,30.19,NNW,327,2.0,6.0,26,0.00,,,0.00,,2013-02-17 21:11:00,
2013-02-17 16:21:00,56.0,22.0,30.19,NW,326,4.0,10.0,26,0.00,,,0.00,,2013-02-17 21:21:00,
2013-02-17 16:32:00,56.0,22.0,30.19,NNW,336,7.0,10.0,26,0.00,,,0.00,,2013-02-17 21:32:00,
2013-02-17 16:42:00,56.0,22.0,30.19,NNW,336,7.0,10.0,26,0.00,,,0.00,,2013-02-17 21:42:00,
2013-02-17 16:53:00,55.0,21.0,30.19,NNW,343,7.0,9.0,26,0.00,,,0.00,,2013-02-17 21:53:00,
2013-02-17 17:01:00,55.0,21.0,30.19,NW,306,5.0,10.0,26,0.00,,,0.00,,2013-02-17 22:01:00,
2013-02-17 17:12:00,55.0,21.0,30.19,NW,306,5.0,10.0,26,0.00,,,0.00,,2013-02-17 22:12:00,
2013-02-17 17:22:00,54.0,20.0,30.19,NW,315,3.0,6.0,26,0.00,,,0.00,,2013-02-17 22:22:00,
2013-02-17 17:32:00,53.0,20.0,30.19,WNW,299,4.0,6.0,27,0.00,,,0.00,,2013-02-17 22:32:00,
2013-02-17 17:42:00,53.0,20.0,30.19,WNW,299,4.0,6.0,27,0.00,,,0.00,,2013-02-17 22:42:00,
2013-02-17 17:52:00,53.0,20.0,30.19,NW,311,4.0,5.0,27,0.00,,,0.00,,2013-02-17 22:52:00,
2013-02-17 18:02:00,52.0,20.0,30.19,NW,323,2.0,4.0,28,0.00,,,0.00,,2013-02-17 23:02:00,
2013-02-17 18:11:00,52.0,20.0,30.19,NW,323,2.0,4.0,28,0.00,,,0.00,,2013-02-17 23:11:00,
2013-02-17 18:21:00,51.0,20.0,30.20,NNW,338,0.0,1.0,29,0.00,,,0.00,,2013-02-17 23:21:00,
2013-02-17 18:32:00,50.0,21.0,30.20,WNW,298,3.0,5.0,31,0.00,,,0.00,,2013-02-17 23:32:00,
2013-02-17 18:42:00,50.0,21.0,30.20,WNW,298,3.0,5.0,31,0.00,,,0.00,,2013-02-17 23:42:00,
2013-02-17 18:52:00,50.0,23.0,30.20,NW,309,0.0,0.0,35,0.00,,,0.00,,2013-02-17 23:52:00,
2013-02-17 19:02:00,49.0,25.0,30.20,NW,313,0.0,0.0,38,0.00,,,0.00,,2013-02-18 00:02:00,
2013-02-17 19:12:00,49.0,25.0,30.20,NW,313,0.0,0.0,38,0.00,,,0.00,,2013-02-18 00:12:00,
2013-02-17 19:22:00,47.0,26.0,30.20,NW,313,0.0,0.0,43,0.00,,,0.00,,2013-02-18 00:22:00,
2013-02-17 19:32:00,46.0,26.0,30.21,NW,313,0.0,0.0,46,0.00,,,0.00,,2013-02-18 00:32:00,
2013-02-17 19:42:00,46.0,26.0,30.21,NW,313,0.0,0.0,46,0.00,,,0.00,,2013-02-18 00:42:00,
2013-02-17 19:52:00,45.0,27.0,30.21,NW,313,0.0,0.0,48,0.00,,,0.00,,2013-02-18 00:52:00,
2013-02-17 20:01:00,44.0,27.0,30.22,NW,313,0.0,0.0,50,0.00,,,0.00,,2013-02-18 01:01:00,
2013-02-17 20:12:00,44.0,27.0,30.22,NW,313,0.0,0.0,50,0.00,,,0.00,,2013-02-18 01:12:00,
2013-02-17 20:21:00,43.0,26.0,30.22,NW,313,0.0,0.0,51,0.00,,,0.00,,2013-02-18 01:21:00,
2013-02-17 20:32:00,42.0,27.0,30.22,NW,313,0.0,0.0,55,0.00,,,0.00,,2013-02-18 01:32:00,
2013-02-17 20:42:00,42.0,27.0,30.22,NW,313,0.0,0.0,55,0.00,,,0.00,,2013-02-18 01:42:00,
2013-02-17 20:51:00,41.0,28.0,30.23,NW,313,0.0,0.0,59,0.00,,,0.00,,2013-02-18 01:51:00,
2013-02-17 21:02:00,41.0,29.0,30.23,NW,313,0.0,0.0,61,0.00,,,0.00,,2013-02-18 02:02:00,
2013-02-17 21:11:00,41.0,29.0,30.23,NW,313,0.0,0.0,61,0.00,,,0.00,,2013-02-18 02:11:00,
2013-02-17 21:22:00,40.0,28.0,30.23,NW,313,0.0,0.0,63,0.00,,,0.00,,2013-02-18 02:22:00,
2013-02-17 21:32:00,40.0,30.0,30.24,NW,313,0.0,0.0,66,0.00,,,0.00,,2013-02-18 02:32:00,
2013-02-17 21:42:00,40.0,30.0,30.24,NW,313,0.0,0.0,66,0.00,,,0.00,,2013-02-18 02:42:00,
2013-02-17 21:52:00,39.0,29.0,30.24,NW,313,0.0,0.0,68,0.00,,,0.00,,2013-02-18 02:52:00,
2013-02-17 22:02:00,39.0,30.0,30.24,NW,313,0.0,0.0,71,0.00,,,0.00,,2013-02-18 03:02:00,
2013-02-17 22:11:00,39.0,30.0,30.24,NW,313,0.0,0.0,71,0.00,,,0.00,,2013-02-18 03:11:00,
2013-02-17 22:22:00,38.0,30.0,30.26,NW,313,0.0,0.0,72,0.00,,,0.00,,2013-02-18 03:22:00,
2013-02-17 22:32:00,38.0,30.0,30.26,NNW,336,0.0,0.0,74,0.00,,,0.00,,2013-02-18 03:32:00,
2013-02-17 22:42:00,38.0,30.0,30.26,NNW,336,0.0,0.0,74,0.00,,,0.00,,2013-02-18 03:42:00,
2013-02-17 22:52:00,38.0,31.0,30.26,NNW,336,0.0,0.0,75,0.00,,,0.00,,2013-02-18 03:52:00,
2013-02-17 23:01:00,37.0,30.0,30.26,NNW,336,0.0,0.0,75,0.00,,,0.00,,2013-02-18 04:01:00,
2013-02-17 23:11:00,37.0,30.0,30.26,NNW,336,0.0,0.0,75,0.00,,,0.00,,2013-02-18 04:11:00,
2013-02-17 23:21:00,37.0,30.0,30.27,NNW,336,0.0,0.0,76,0.00,,,0.00,,2013-02-18 04:21:00,
2013-02-17 23:32:00,37.0,30.0,30.27,NNW,339,0.0,0.0,76,0.00,,,0.00,,2013-02-18 04:32:00,
2013-02-17 23:42:00,37.0,30.0,30.27,NNW,339,0.0,0.0,76,0.00,,,0.00,,2013-02-18 04:42:00,
2013-02-17 23:52:00,36.0,29.0,30.27,NNW,339,0.0,0.0,77,0.00,,,0.00,,2013-02-18 04:52:00,